createdAt,value
2023-02-01T00:02:17.819Z,2.17
2023-02-01T00:04:44.653Z,1.85
2023-02-01T00:07:14.210Z,1.63
2023-02-01T00:09:41.191Z,1.67
2023-02-01T00:12:08.104Z,1.40
2023-02-01T00:14:39.575Z,1.85
2023-02-01T00:19:35.546Z,1.58
2023-02-01T00:22:02.359Z,1.65
2023-02-01T00:24:29.328Z,1.70
2023-02-01T00:26:56.924Z,1.83
2023-02-01T00:29:24.051Z,2.17
2023-02-01T00:31:52.679Z,2.10
2023-02-01T00:34:20.565Z,2.28
2023-02-01T00:36:48.113Z,1.98
2023-02-01T00:39:15.737Z,1.95
2023-02-01T00:41:42.687Z,1.98
2023-02-01T00:44:09.792Z,2.22
2023-02-01T00:46:37.268Z,1.83
2023-02-01T00:49:04.371Z,1.42
2023-02-01T00:51:31.392Z,2.20
2023-02-01T00:53:58.751Z,1.65
2023-02-01T00:56:25.903Z,1.60
2023-02-01T00:58:52.789Z,1.50
2023-02-01T01:01:26.978Z,1.33
2023-02-01T01:03:59.601Z,1.45
2023-02-01T01:06:29.318Z,1.50
2023-02-01T01:08:57.860Z,1.13
2023-02-01T01:11:28.243Z,1.60
2023-02-01T01:13:56.626Z,1.50
2023-02-01T01:16:24.992Z,2.20
2023-02-01T01:18:52.670Z,2.03
2023-02-01T01:21:19.908Z,1.70
2023-02-01T01:23:48.571Z,2.00
2023-02-01T01:26:18.778Z,2.08
2023-02-01T01:28:45.838Z,2.47
2023-02-01T01:31:14.254Z,1.70
2023-02-01T01:33:41.253Z,2.45
2023-02-01T01:36:12.301Z,1.70
2023-02-01T01:38:40.019Z,1.63
2023-02-01T01:41:07.606Z,2.35
2023-02-01T01:43:59.427Z,2.00
2023-02-01T01:46:31.907Z,1.60
2023-02-01T01:49:10.541Z,1.10
2023-02-01T01:51:42.687Z,1.23
2023-02-01T01:54:18.590Z,1.70
2023-02-01T01:56:52.547Z,1.77
2023-02-01T01:59:20.185Z,2.25
2023-02-01T02:01:47.815Z,1.60
2023-02-01T02:04:14.953Z,2.13
2023-02-01T02:06:54.184Z,1.73
2023-02-01T02:09:21.036Z,2.65
2023-02-01T02:11:47.981Z,2.15
2023-02-01T02:14:18.584Z,2.65
2023-02-01T02:16:48.445Z,1.95
2023-02-01T02:19:56.755Z,2.22
2023-02-01T02:22:46.825Z,2.05
2023-02-01T02:25:34.911Z,1.50
2023-02-01T02:28:29.759Z,2.20
2023-02-01T02:31:14.739Z,1.88
2023-02-01T02:34:05.883Z,1.85
2023-02-01T02:36:53.776Z,1.70
2023-02-01T02:39:23.708Z,1.73
2023-02-01T02:42:28.832Z,1.90
2023-02-01T02:45:29.020Z,1.85
2023-02-01T02:48:14.400Z,2.80
2023-02-01T02:51:06.814Z,2.60
2023-02-01T02:54:20.718Z,2.60
2023-02-01T02:57:08.289Z,2.05
2023-02-01T02:59:55.036Z,2.17
2023-02-01T03:02:41.420Z,2.58
2023-02-01T03:05:08.357Z,1.85
2023-02-01T03:07:52.255Z,2.63
2023-02-01T03:10:41.814Z,2.00
2023-02-01T03:13:15.485Z,2.17
2023-02-01T03:16:01.065Z,2.15
2023-02-01T03:18:37.082Z,2.22
2023-02-01T03:21:09.504Z,2.33
2023-02-01T03:23:40.729Z,2.15
2023-02-01T03:26:12.996Z,2.17
2023-02-01T03:28:47.180Z,2.28
2023-02-01T03:31:15.185Z,2.50
2023-02-01T03:33:42.566Z,3.72
2023-02-01T03:36:35.349Z,2.13
2023-02-01T03:39:17.834Z,3.00
2023-02-01T03:41:52.631Z,2.50
2023-02-01T03:44:31.998Z,2.90
2023-02-01T03:47:26.429Z,2.40
2023-02-01T03:50:00.354Z,3.03
2023-02-01T03:52:42.282Z,2.92
2023-02-01T03:55:11.030Z,3.20
2023-02-01T03:57:44.477Z,3.47
2023-02-01T04:00:18.729Z,3.80
2023-02-01T04:02:45.723Z,2.97
2023-02-01T04:05:12.810Z,3.05
2023-02-01T04:07:39.817Z,2.65
2023-02-01T04:10:07.278Z,3.65
2023-02-01T04:12:34.118Z,3.50
2023-02-01T04:15:00.961Z,3.25
2023-02-01T04:17:27.869Z,3.60
2023-02-01T04:19:55.595Z,3.55
2023-02-01T04:22:22.418Z,2.88
2023-02-01T04:24:49.385Z,3.22
2023-02-01T04:27:16.665Z,2.70
2023-02-01T04:29:43.565Z,3.35
2023-02-01T04:32:10.361Z,4.30
2023-02-01T04:34:37.216Z,2.83
2023-02-01T04:37:04.389Z,3.10
2023-02-01T04:39:31.425Z,3.58
2023-02-01T04:41:58.250Z,3.40
2023-02-01T04:44:25.342Z,2.65
2023-02-01T04:46:52.125Z,2.38
2023-02-01T04:49:19.121Z,2.88
2023-02-01T04:51:45.936Z,2.75
2023-02-01T04:54:12.863Z,2.90
2023-02-01T04:56:39.656Z,3.33
2023-02-01T04:59:06.936Z,3.00
2023-02-01T05:01:34.263Z,3.10
2023-02-01T05:04:01.245Z,3.08
2023-02-01T05:06:27.947Z,2.65
2023-02-01T05:08:54.842Z,2.97
2023-02-01T05:11:40.381Z,2.88
2023-02-01T05:14:07.312Z,2.88
2023-02-01T05:16:34.326Z,1.85
2023-02-01T05:19:01.086Z,3.45
2023-02-01T05:21:28.128Z,3.22
2023-02-01T05:24:13.494Z,3.25
2023-02-01T05:26:41.694Z,3.42
2023-02-01T05:29:09.735Z,2.55
2023-02-01T05:31:37.223Z,3.40
2023-02-01T05:34:04.365Z,3.60
2023-02-01T05:36:31.276Z,2.85
2023-02-01T05:38:58.214Z,3.25
2023-02-01T05:41:25.547Z,3.95
2023-02-01T05:43:52.227Z,3.95
2023-02-01T05:46:19.187Z,3.10
2023-02-01T05:48:45.927Z,4.20
2023-02-01T05:51:13.493Z,3.30
2023-02-01T05:53:40.217Z,3.30
2023-02-01T05:56:07.272Z,2.72
2023-02-01T05:58:34.130Z,2.95
2023-02-01T06:01:01.757Z,3.47
2023-02-01T06:03:29.026Z,3.17
2023-02-01T06:05:56.279Z,2.97
2023-02-01T06:08:26.472Z,2.33
2023-02-01T06:10:59.804Z,2.67
2023-02-01T06:13:26.611Z,3.72
2023-02-01T06:15:53.547Z,4.20
2023-02-01T06:18:20.549Z,3.13
2023-02-01T06:20:56.317Z,2.90
2023-02-01T06:23:24.737Z,2.40
2023-02-01T06:26:00.827Z,3.30
2023-02-01T06:28:28.835Z,3.38
2023-02-01T06:30:55.940Z,3.53
2023-02-01T06:33:22.684Z,2.65
2023-02-01T06:35:49.401Z,2.83
2023-02-01T06:38:16.374Z,2.42
2023-02-01T06:40:43.289Z,2.78
2023-02-01T06:43:10.193Z,2.47
2023-02-01T06:45:36.855Z,2.80
2023-02-01T06:48:03.738Z,2.63
2023-02-01T06:50:30.452Z,2.33
2023-02-01T06:52:57.312Z,2.53
2023-02-01T06:55:24.014Z,2.75
2023-02-01T06:57:55.031Z,3.38
2023-02-01T07:00:25.839Z,3.15
2023-02-01T07:02:52.728Z,2.38
2023-02-01T07:05:19.418Z,2.85
2023-02-01T07:07:46.196Z,2.22
2023-02-01T07:10:13.505Z,2.55
2023-02-01T07:12:40.368Z,2.40
2023-02-01T07:15:07.743Z,2.40
2023-02-01T07:17:34.451Z,2.92
2023-02-01T07:20:02.468Z,2.95
2023-02-01T07:22:30.246Z,2.70
2023-02-01T07:24:56.955Z,2.58
2023-02-01T07:27:25.927Z,2.95
2023-02-01T07:29:53.630Z,3.00
2023-02-01T07:32:20.378Z,2.67
2023-02-01T07:34:47.063Z,2.20
2023-02-01T07:37:13.895Z,2.72
2023-02-01T07:39:40.572Z,2.28
2023-02-01T07:42:07.832Z,2.63
2023-02-01T07:44:34.544Z,4.00
2023-02-01T07:47:01.238Z,2.47
2023-02-01T07:49:28.055Z,2.35
2023-02-01T07:51:54.791Z,2.20
2023-02-01T07:54:21.440Z,3.08
2023-02-01T07:56:48.107Z,2.40
2023-02-01T07:59:16.105Z,2.40
2023-02-01T08:01:43.296Z,2.78
2023-02-01T08:04:13.324Z,2.50
2023-02-01T08:06:41.074Z,3.55
2023-02-01T08:09:12.291Z,2.22
2023-02-01T08:11:39.102Z,3.00
2023-02-01T08:14:06.883Z,2.40
2023-02-01T08:16:36.177Z,3.25
2023-02-01T08:19:03.433Z,2.45
2023-02-01T08:21:39.216Z,2.35
2023-02-01T08:24:07.379Z,2.15
2023-02-01T08:26:34.191Z,1.80
2023-02-01T08:29:04.045Z,3.08
2023-02-01T08:31:31.853Z,2.63
2023-02-01T08:34:01.707Z,3.47
2023-02-01T08:36:30.541Z,2.28
2023-02-01T08:38:57.363Z,1.52
2023-02-01T08:41:26.743Z,2.22
2023-02-01T08:43:55.072Z,2.70
2023-02-01T08:46:22.577Z,2.90
2023-02-01T08:48:50.102Z,2.42
2023-02-01T08:51:19.015Z,2.38
2023-02-01T08:53:46.015Z,2.38
2023-02-01T08:56:14.391Z,2.67
2023-02-01T08:58:41.511Z,2.75
2023-02-01T09:01:10.560Z,2.30
2023-02-01T09:03:37.440Z,2.33
2023-02-01T09:06:06.613Z,2.55
2023-02-01T09:08:34.259Z,2.70
2023-02-01T09:11:06.593Z,2.50
2023-02-01T09:13:34.729Z,2.65
2023-02-01T09:16:01.703Z,2.70
2023-02-01T09:18:28.509Z,1.92
2023-02-01T09:20:55.277Z,2.47
2023-02-01T09:23:22.053Z,2.20
2023-02-01T09:25:51.316Z,3.08
2023-02-01T09:28:18.989Z,2.45
2023-02-01T09:30:45.769Z,2.63
2023-02-01T09:33:12.555Z,2.70
2023-02-01T09:35:39.338Z,2.92
2023-02-01T09:38:06.358Z,2.42
2023-02-01T09:40:35.589Z,3.42
2023-02-01T09:43:20.003Z,2.60
2023-02-01T09:46:15.638Z,2.67
2023-02-01T09:48:44.947Z,3.10
2023-02-01T09:51:22.709Z,2.45
2023-02-01T09:54:06.037Z,2.75
2023-02-01T09:56:45.486Z,2.80
2023-02-01T09:59:24.772Z,3.20
2023-02-01T10:01:51.660Z,3.50
2023-02-01T10:04:19.034Z,2.88
2023-02-01T10:07:04.363Z,3.17
2023-02-01T10:09:40.304Z,3.97
2023-02-01T10:12:39.387Z,2.13
2023-02-01T10:15:31.525Z,2.88
2023-02-01T10:18:23.790Z,2.55
2023-02-01T10:21:13.160Z,2.75
2023-02-01T10:24:17.655Z,3.00
2023-02-01T10:26:52.195Z,2.50
2023-02-01T10:29:27.236Z,3.00
2023-02-01T10:31:54.166Z,2.83
2023-02-01T10:34:27.134Z,3.58
2023-02-01T10:37:09.531Z,2.35
2023-02-01T10:39:37.963Z,2.83
2023-02-01T10:42:04.895Z,3.55
2023-02-01T10:44:35.927Z,2.50
2023-02-01T10:47:02.648Z,2.03
2023-02-01T10:49:38.351Z,2.35
2023-02-01T10:52:16.345Z,2.80
2023-02-01T10:54:43.599Z,3.42
2023-02-01T10:57:22.782Z,3.08
2023-02-01T10:59:49.478Z,2.70
2023-02-01T11:02:29.039Z,3.50
2023-02-01T11:05:10.336Z,2.72
2023-02-01T11:07:38.411Z,3.25
2023-02-01T11:10:05.902Z,3.85
2023-02-01T11:12:38.646Z,3.83
2023-02-01T11:15:19.554Z,2.45
2023-02-01T11:17:48.903Z,3.40
2023-02-01T11:20:21.709Z,3.00
2023-02-01T11:22:56.457Z,3.15
2023-02-01T11:25:24.749Z,3.67
2023-02-01T11:27:55.527Z,3.25
2023-02-01T11:30:34.291Z,3.30
2023-02-01T11:33:03.585Z,3.03
2023-02-01T11:35:32.402Z,3.20
2023-02-01T11:38:00.254Z,4.53
2023-02-01T11:40:36.905Z,3.75
2023-02-01T11:43:28.791Z,4.28
2023-02-01T11:46:01.275Z,2.88
2023-02-01T11:48:31.305Z,4.07
2023-02-01T11:51:00.827Z,3.75
2023-02-01T11:53:56.732Z,3.90
2023-02-01T11:56:43.744Z,4.15
2023-02-01T11:59:24.247Z,3.65
2023-02-01T12:01:59.023Z,4.47
2023-02-01T12:04:46.059Z,3.67
2023-02-01T12:07:38.203Z,4.35
2023-02-01T12:10:20.072Z,4.28
2023-02-01T12:13:18.328Z,3.97
2023-02-01T12:16:03.293Z,3.30
2023-02-01T12:19:17.233Z,3.80
2023-02-01T12:21:59.966Z,4.25
2023-02-01T12:24:41.033Z,3.72
2023-02-01T12:27:47.739Z,3.72
2023-02-01T12:30:17.481Z,2.55
2023-02-01T12:33:22.863Z,2.55
2023-02-01T12:36:13.399Z,3.00
2023-02-01T12:39:07.431Z,3.10
2023-02-01T12:41:34.050Z,4.18
2023-02-01T12:44:22.361Z,3.05
2023-02-01T12:47:30.720Z,3.13
2023-02-01T12:50:19.942Z,3.08
2023-02-01T12:52:52.519Z,4.68
2023-02-01T12:55:25.251Z,3.03
2023-02-01T12:58:18.931Z,2.67
2023-02-01T13:00:50.024Z,2.72
2023-02-01T13:03:30.346Z,3.45
2023-02-01T13:06:08.124Z,3.85
2023-02-01T13:08:58.545Z,4.22
2023-02-01T13:11:43.537Z,2.75
2023-02-01T13:14:33.257Z,3.35
2023-02-01T13:17:25.921Z,2.90
2023-02-01T13:20:06.167Z,3.42
2023-02-01T13:22:38.076Z,4.05
2023-02-01T13:25:36.159Z,3.63
2023-02-01T13:28:13.608Z,3.30
2023-02-01T13:31:10.855Z,3.15
2023-02-01T13:33:52.815Z,3.17
2023-02-01T13:36:21.870Z,3.13
2023-02-01T13:39:24.449Z,3.75
2023-02-01T13:42:02.561Z,3.83
2023-02-01T13:44:57.962Z,3.25
2023-02-01T13:47:34.895Z,3.92
2023-02-01T13:50:13.675Z,3.42
2023-02-01T13:52:44.524Z,3.85
2023-02-01T13:55:14.151Z,4.40
2023-02-01T13:57:44.868Z,5.47
2023-02-01T14:00:33.711Z,4.95
2023-02-01T14:03:02.006Z,4.00
2023-02-01T14:05:29.041Z,4.30
2023-02-01T14:08:08.530Z,3.88
2023-02-01T14:10:56.879Z,4.05
2023-02-01T14:13:40.877Z,3.60
2023-02-01T14:16:07.556Z,4.47
2023-02-01T14:18:43.009Z,4.53
2023-02-01T14:21:37.376Z,4.72
2023-02-01T14:24:25.142Z,4.55
2023-02-01T14:26:53.918Z,4.15
2023-02-01T14:29:27.535Z,4.07
2023-02-01T14:32:19.003Z,3.00
2023-02-01T14:34:48.723Z,3.40
2023-02-01T14:37:18.195Z,3.95
2023-02-01T14:39:47.679Z,3.13
2023-02-01T14:42:35.565Z,2.00
2023-02-01T14:45:24.349Z,2.22
2023-02-01T14:47:53.062Z,1.80
2023-02-01T14:50:34.762Z,2.78
2023-02-01T14:53:14.077Z,1.98
2023-02-01T14:56:04.019Z,1.83
2023-02-01T14:58:48.616Z,1.40
2023-02-01T15:01:24.019Z,1.70
2023-02-01T15:04:09.844Z,1.65
2023-02-01T15:06:48.539Z,1.52
2023-02-01T15:09:20.979Z,2.25
2023-02-01T15:12:12.057Z,1.50
2023-02-01T15:14:41.258Z,1.15
2023-02-01T15:17:24.322Z,3.45
2023-02-01T15:20:04.861Z,2.70
2023-02-01T15:22:35.721Z,1.80
2023-02-01T15:25:04.243Z,1.63
2023-02-01T15:27:32.736Z,1.40
2023-02-01T15:30:17.032Z,1.38
2023-02-01T15:32:43.731Z,1.67
2023-02-01T15:35:33.628Z,1.92
2023-02-01T15:38:19.872Z,1.75
2023-02-01T15:41:05.652Z,1.80
2023-02-01T15:43:56.470Z,1.83
2023-02-01T15:46:33.110Z,1.60
2023-02-01T15:49:00.201Z,1.50
2023-02-01T15:51:30.425Z,1.70
2023-02-01T15:54:00.756Z,2.67
2023-02-01T15:56:37.995Z,3.42
2023-02-01T15:59:13.229Z,2.08
2023-02-01T16:01:42.997Z,1.60
2023-02-01T16:04:24.804Z,1.70
2023-02-01T16:09:26.061Z,1.60
2023-02-01T16:11:57.263Z,1.80
2023-02-01T16:14:25.020Z,1.85
2023-02-01T16:16:53.631Z,2.05
2023-02-01T16:19:20.769Z,1.80
2023-02-01T16:21:48.074Z,1.52
2023-02-01T16:24:15.035Z,1.52
2023-02-01T16:26:42.014Z,1.63
2023-02-01T16:29:09.416Z,1.42
2023-02-01T16:31:39.879Z,1.85
2023-02-01T16:34:07.555Z,1.83
2023-02-01T16:36:35.113Z,1.63
2023-02-01T16:39:03.953Z,1.75
2023-02-01T16:41:30.892Z,2.75
2023-02-01T16:43:57.764Z,2.33
2023-02-01T16:46:27.638Z,1.90
2023-02-01T16:48:58.407Z,1.70
2023-02-01T16:51:27.836Z,1.33
2023-02-01T16:53:55.190Z,1.33
2023-02-01T16:56:32.533Z,1.20
2023-02-01T16:58:59.551Z,1.42
2023-02-01T17:01:26.895Z,1.73
2023-02-01T17:03:53.908Z,1.85
2023-02-01T17:06:24.724Z,1.75
2023-02-01T17:08:54.548Z,1.70
2023-02-01T17:11:21.308Z,1.98
2023-02-01T17:13:48.388Z,2.05
2023-02-01T17:16:32.440Z,2.22
2023-02-01T17:19:04.468Z,2.50
2023-02-01T17:21:43.688Z,4.38
2023-02-01T17:24:15.641Z,3.58
2023-02-01T17:26:43.529Z,2.50
2023-02-01T17:29:10.856Z,3.60
2023-02-01T17:31:44.208Z,3.20
2023-02-01T17:34:12.765Z,3.65
2023-02-01T17:36:42.593Z,4.32
2023-02-01T17:39:10.212Z,3.58
2023-02-01T17:41:37.906Z,3.50
2023-02-01T17:44:05.258Z,2.47
2023-02-01T17:46:32.496Z,4.90
2023-02-01T17:48:59.496Z,4.10
2023-02-01T17:51:28.211Z,3.53
2023-02-01T17:53:55.073Z,3.78
2023-02-01T17:56:24.832Z,5.18
2023-02-01T17:58:51.809Z,12.93
2023-02-01T18:01:24.210Z,9.95
2023-02-01T18:03:52.007Z,4.68
2023-02-01T18:06:23.937Z,6.60
2023-02-01T18:08:51.187Z,4.38
2023-02-01T18:11:20.534Z,3.85
2023-02-01T18:13:48.516Z,3.75
2023-02-01T18:16:28.208Z,2.13
2023-02-01T18:18:55.183Z,1.88
2023-02-01T18:21:23.519Z,2.35
2023-02-01T18:23:50.694Z,2.95
2023-02-01T18:26:18.970Z,2.30
2023-02-01T18:28:45.809Z,3.35
2023-02-01T18:31:32.609Z,2.88
2023-02-01T18:34:00.324Z,2.40
2023-02-01T18:36:30.719Z,3.05
2023-02-01T18:38:57.897Z,2.35
2023-02-01T18:41:26.004Z,2.67
2023-02-01T18:43:53.172Z,1.92
2023-02-01T18:46:22.003Z,2.42
2023-02-01T18:48:48.827Z,1.90
2023-02-01T18:51:20.365Z,2.13
2023-02-01T18:53:48.499Z,2.45
2023-02-01T18:56:19.900Z,2.47
2023-02-01T19:01:21.217Z,2.25
2023-02-01T19:03:51.900Z,2.08
2023-02-01T19:06:21.868Z,2.30
2023-02-01T19:08:48.806Z,2.17
2023-02-01T19:11:15.489Z,2.17
2023-02-01T19:13:42.389Z,2.28
2023-02-01T19:16:11.613Z,1.77
2023-02-01T19:18:39.180Z,2.20
2023-02-01T19:21:11.431Z,1.90
2023-02-01T19:23:42.355Z,2.05
2023-02-01T19:26:13.577Z,2.47
2023-02-01T19:28:40.861Z,1.98
2023-02-01T19:31:09.021Z,2.05
2023-02-01T19:33:36.457Z,1.58
2023-02-01T19:36:06.014Z,2.90
2023-02-01T19:38:33.612Z,2.50
2023-02-01T19:41:00.464Z,3.42
2023-02-01T19:43:28.610Z,3.67
2023-02-01T19:45:56.048Z,1.75
2023-02-01T19:48:23.339Z,3.20
2023-02-01T19:50:50.175Z,2.10
2023-02-01T19:53:16.906Z,1.85
2023-02-01T19:55:47.271Z,1.88
2023-02-01T19:58:14.612Z,1.63
2023-02-01T20:00:40.945Z,1.73
2023-02-01T20:03:08.307Z,1.60
2023-02-01T20:05:35.044Z,1.80
2023-02-01T20:08:02.160Z,2.60
2023-02-01T20:10:29.636Z,2.10
2023-02-01T20:12:56.332Z,2.13
2023-02-01T20:15:26.917Z,2.03
2023-02-01T20:17:53.942Z,1.08
2023-02-01T20:20:20.686Z,1.42
2023-02-01T20:22:47.532Z,1.75
2023-02-01T20:25:14.264Z,1.85
2023-02-01T20:27:41.874Z,1.60
2023-02-01T20:30:09.738Z,3.45
2023-02-01T20:32:37.987Z,1.33
2023-02-01T20:35:05.082Z,1.40
2023-02-01T20:37:31.942Z,1.20
2023-02-01T20:39:58.889Z,1.25
2023-02-01T20:42:25.888Z,1.10
2023-02-01T20:44:52.730Z,1.00
2023-02-01T20:47:19.560Z,0.82
2023-02-01T20:49:46.445Z,0.85
2023-02-01T20:52:13.404Z,1.13
2023-02-01T20:54:40.310Z,1.23
2023-02-01T20:57:07.444Z,1.20
2023-02-01T20:59:34.350Z,1.13
2023-02-01T21:02:01.527Z,0.98
2023-02-01T21:04:29.558Z,0.88
2023-02-01T21:06:58.211Z,0.75
2023-02-01T21:09:26.040Z,0.73
2023-02-01T21:11:53.487Z,0.70
2023-02-01T21:14:21.064Z,0.60
2023-02-01T21:16:48.685Z,0.70
2023-02-01T21:19:16.966Z,0.98
2023-02-01T21:21:43.997Z,0.55
2023-02-01T21:24:10.955Z,0.80
2023-02-01T21:26:43.812Z,0.50
2023-02-01T21:29:14.369Z,0.68
2023-02-01T21:31:42.644Z,0.50
2023-02-01T21:34:10.012Z,0.77
2023-02-01T21:36:37.063Z,0.73
2023-02-01T21:39:06.351Z,0.73
2023-02-01T21:41:53.027Z,0.45
2023-02-01T21:44:20.372Z,0.60
2023-02-01T21:46:47.464Z,1.15
2023-02-01T21:49:14.640Z,0.70
2023-02-01T21:51:42.667Z,0.65
2023-02-01T21:54:11.211Z,0.50
2023-02-01T21:56:38.735Z,0.70
2023-02-01T21:59:05.725Z,0.60
2023-02-01T22:01:34.032Z,0.70
2023-02-01T22:04:01.059Z,0.77
2023-02-01T22:06:30.677Z,0.38
2023-02-01T22:08:58.474Z,0.60
2023-02-01T22:11:26.115Z,0.50
2023-02-01T22:13:53.438Z,0.63
2023-02-01T22:16:21.762Z,0.52
2023-02-01T22:18:50.360Z,0.50
2023-02-01T22:21:18.202Z,0.30
2023-02-01T22:23:45.574Z,0.40
2023-02-01T22:26:14.440Z,0.40
2023-02-01T22:28:41.569Z,0.60
2023-02-01T22:31:10.145Z,0.50
2023-02-01T22:33:37.865Z,0.73
2023-02-01T22:36:06.048Z,0.55
2023-02-01T22:38:34.631Z,0.60
2023-02-01T22:41:06.101Z,0.60
2023-02-01T22:43:34.920Z,0.80
2023-02-01T22:46:05.828Z,0.55
2023-02-01T22:48:36.850Z,0.95
2023-02-01T22:51:04.882Z,1.13
2023-02-01T22:53:32.585Z,0.40
2023-02-01T22:56:07.390Z,0.60
2023-02-01T22:58:37.334Z,0.50
2023-02-01T23:01:16.589Z,0.70
2023-02-01T23:03:43.431Z,0.70
2023-02-01T23:06:10.452Z,0.70
2023-02-01T23:08:39.607Z,0.43
2023-02-01T23:11:09.477Z,0.73
2023-02-01T23:13:37.446Z,0.60
2023-02-01T23:16:09.859Z,0.60
2023-02-01T23:18:37.161Z,0.38
2023-02-01T23:21:15.829Z,0.40
2023-02-01T23:23:48.414Z,0.40
2023-02-01T23:26:15.755Z,0.55
2023-02-01T23:28:43.165Z,0.47
2023-02-01T23:31:12.597Z,0.50
2023-02-01T23:33:40.455Z,0.50
2023-02-01T23:36:11.787Z,0.50
2023-02-01T23:41:07.380Z,0.50
2023-02-01T23:43:53.159Z,0.50
2023-02-01T23:46:20.508Z,0.50
2023-02-01T23:48:48.972Z,0.30
2023-02-01T23:51:16.689Z,0.50
2023-02-01T23:53:44.899Z,0.50
2023-02-01T23:56:33.566Z,0.52
2023-02-01T23:59:06.256Z,0.55
